Briefing drone pour Monts

Rechercher une autre localisation

Conditions de vol :


Nous sommes le : Jeudi 11 août 2022
Il est 20:11 UTC (22:11 LT)

Lever de soleil : 04:22 UTC (06:22 LT)
Coucher de soleil : 19:42 UTC (21:42 LT)

Météo

L'essentiel des conditions de vol

VIGILANCE MÉTÉO FRANCE - Indre-et-Loire (37)
Vigilance Jaune : Canicule
METAR de LFOT
LFOT 112000Z AUTO 04005KT 360V080 CAVOK 27/07 Q1015 NOSIG

Date d'émission: 11/08/2022
Heure d'émission: 20:00 UTC
Vent: 040° (variable du 360° au 080°) pour 5 KT (9 km/h)
Visibilité horizontale: > 10 km
Plafond : Plafond et visibilité OK (CAVOK)
Température: 27 °C
Point de rosée: 7 °C
Humidité: 28%
Pression (QNH): 1015 hPa
Conditions: Pas de changement dans les 2 heures (NOSIG)
TAF de LFOT
LFOT 111700Z 1118/1218 06008KT CAVOK

Conditions prévues :

Heure d'émission : Bulletin éffectué le 11 à 18:00 UTC
Prévision : Valide du 11 a 18:00 UTC au 12 a 18:00 UTC
Vent : 60° pour 8 KT (15 km/h)
Visibilité : > 10 km
WEBCAM POUR MONTS

Réglementation

Voler en sécurité

CARTES AERONAUTIQUE 1/500.000
CARTE AZBA (Reseau basse altitude)
CARTES VAC (LFOT)
SUP AIP




Chargement des AIP...
NOTAM (MONTS + Terrain à proximité / FIR )




Chargement des NOTAMS...
CONTACT PREFECTURE 37
Indre-et-Loire (37) : pref-drones@indre-et-loire.gouv.fr


Avertissement : Les données mises à disposition sont indicatives. Oxygène Drone ne pourra être tenu responsable de dégâts causés aux biens et aux personnes.